Time;durP1;ratioP1;P1;durP2;ratioP2;P2;SDS_P1;SDS_P2;PMS_P1;PMS_P2;Temp;Humidity;BMP_temperature;BMP_pressure;BME280_temperature;BME280_humidity;BME280_pressure;Samples;Min_cycle;Max_cycle;Signal;HPM_P1;HPM_P2
2021/04/24 00:01:30;;;;;;;11.20;4.90;;;17.30;95.20;;;;;;5054323;28;20206;-76
2021/04/24 00:04:01;;;;;;;11.53;5.40;;;17.50;95.10;;;;;;5060062;28;20244;-75
2021/04/24 00:06:30;;;;;;;11.93;4.53;;;17.60;95.20;;;;;;5051974;28;20237;-75
2021/04/24 00:08:58;;;;;;;10.03;4.47;;;17.80;94.20;;;;;;5058114;28;20186;-75
2021/04/24 00:11:27;;;;;;;8.33;4.47;;;17.90;93.70;;;;;;5060614;28;20625;-77
2021/04/24 00:13:54;;;;;;;11.00;4.90;;;18.00;93.50;;;;;;5055032;28;20286;-73
2021/04/24 00:16:22;;;;;;;7.40;3.63;;;18.30;93.30;;;;;;5056746;28;20513;-79
2021/04/24 00:18:50;;;;;;;9.40;4.03;;;18.50;92.40;;;;;;5058755;28;20700;-80
2021/04/24 00:21:18;;;;;;;13.67;4.67;;;18.50;92.20;;;;;;5056594;28;20215;-82
2021/04/24 00:23:45;;;;;;;12.00;4.53;;;18.60;92.10;;;;;;5054567;28;20188;-78
2021/04/24 00:26:13;;;;;;;12.60;4.67;;;18.80;91.80;;;;;;5055630;28;20196;-76
2021/04/24 00:28:40;;;;;;;9.07;4.03;;;18.90;91.20;;;;;;5050414;28;20214;-74
2021/04/24 00:31:08;;;;;;;10.13;4.27;;;19.00;91.00;;;;;;5054596;28;20894;-75
2021/04/24 00:33:38;;;;;;;9.43;4.07;;;19.10;91.20;;;;;;5053838;28;20204;-77
2021/04/24 00:36:05;;;;;;;7.23;3.60;;;19.20;90.90;;;;;;5054903;28;20279;-77
2021/04/24 00:38:33;;;;;;;9.77;3.47;;;19.20;90.70;;;;;;5057545;28;20183;-75
2021/04/24 00:41:00;;;;;;;6.10;3.10;;;19.20;90.00;;;;;;5053183;28;20207;-76
2021/04/24 00:43:27;;;;;;;9.73;3.20;;;19.10;89.80;;;;;;5051269;28;20588;-78
2021/04/24 00:45:55;;;;;;;4.80;2.37;;;19.10;90.10;;;;;;5056070;28;20190;-73
2021/04/24 00:48:22;;;;;;;6.13;3.10;;;19.20;88.40;;;;;;5049723;28;20183;-76
2021/04/24 00:50:49;;;;;;;6.90;3.00;;;19.40;88.40;;;;;;5054522;28;20187;-72
2021/04/24 00:53:17;;;;;;;7.03;2.83;;;19.50;87.90;;;;;;5053870;28;20222;-73
2021/04/24 00:55:44;;;;;;;6.90;3.10;;;19.60;86.90;;;;;;5056846;28;20267;-76
2021/04/24 00:58:13;;;;;;;8.13;3.27;;;19.70;86.90;;;;;;5053589;28;20183;-78
2021/04/24 01:00:41;;;;;;;7.87;3.20;;;19.70;86.40;;;;;;5072591;28;20692;-76
2021/04/24 01:03:09;;;;;;;8.90;2.97;;;19.70;86.50;;;;;;5073453;28;20206;-73
2021/04/24 01:05:39;;;;;;;7.80;3.10;;;19.70;86.60;;;;;;5072771;28;20617;-78
2021/04/24 01:08:08;;;;;;;7.17;3.47;;;19.80;86.40;;;;;;5074155;28;20630;-78
2021/04/24 01:10:43;;;;;;;6.83;3.30;;;19.80;86.50;;;;;;5072260;28;20790;-79
2021/04/24 01:13:12;;;;;;;14.10;3.50;;;19.80;86.60;;;;;;5073382;28;20209;-77
2021/04/24 01:15:39;;;;;;;8.70;3.37;;;19.80;86.40;;;;;;5060592;28;20212;-77
2021/04/24 01:18:08;;;;;;;7.40;3.77;;;19.90;85.50;;;;;;5064157;28;20190;-78
2021/04/24 01:20:37;;;;;;;7.50;2.83;;;20.00;85.40;;;;;;5073353;28;20215;-77
2021/04/24 01:23:06;;;;;;;9.07;3.53;;;20.00;84.70;;;;;;5073692;28;20522;-79
2021/04/24 01:25:36;;;;;;;6.23;3.17;;;20.10;84.30;;;;;;5073771;28;20614;-78
2021/04/24 01:28:04;;;;;;;7.90;3.87;;;20.10;83.60;;;;;;5073442;28;20545;-74
2021/04/24 01:30:35;;;;;;;9.03;3.97;;;20.20;84.10;;;;;;5072820;28;20230;-70
2021/04/24 01:33:07;;;;;;;13.07;3.40;;;20.30;84.20;;;;;;5073068;28;20179;-76
2021/04/24 01:35:35;;;;;;;4.93;3.50;;;20.40;83.50;;;;;;5073157;28;20194;-80
2021/04/24 01:38:04;;;;;;;6.83;3.47;;;20.60;83.60;;;;;;5073322;28;20171;-80
2021/04/24 01:40:32;;;;;;;14.10;4.13;;;20.90;82.40;;;;;;5072924;28;20171;-76
2021/04/24 01:43:01;;;;;;;12.27;4.00;;;21.10;81.80;;;;;;5072905;28;20532;-78
2021/04/24 01:45:30;;;;;;;11.20;3.37;;;21.20;81.40;;;;;;5067050;28;20179;-76
2021/04/24 01:47:57;;;;;;;6.67;3.17;;;21.10;81.70;;;;;;5052503;28;20184;-77
2021/04/24 01:50:31;;;;;;;7.90;3.40;;;21.00;81.20;;;;;;5052957;28;20188;-76
2021/04/24 01:53:00;;;;;;;12.97;3.60;;;21.10;81.70;;;;;;5063792;28;20715;-77
2021/04/24 01:55:31;;;;;;;7.73;3.27;;;21.20;81.40;;;;;;5072283;28;20273;-83
2021/04/24 01:58:00;;;;;;;6.87;3.40;;;21.30;80.80;;;;;;5072751;28;20282;-79
2021/04/24 02:00:32;;;;;;;10.67;3.40;;;21.60;80.10;;;;;;5072319;28;20312;-76
2021/04/24 02:03:02;;;;;;;9.67;3.17;;;21.70;79.70;;;;;;5072706;28;20183;-80
2021/04/24 02:05:29;;;;;;;10.23;3.20;;;21.80;79.70;;;;;;5072478;28;20191;-76
2021/04/24 02:08:06;;;;;;;7.40;2.60;;;21.50;80.10;;;;;;5072718;28;20608;-77
2021/04/24 02:10:33;;;;;;;6.80;3.07;;;21.40;80.50;;;;;;5060016;28;20215;-75
2021/04/24 02:13:07;;;;;;;7.40;3.30;;;21.40;80.40;;;;;;5060283;28;20585;-77
2021/04/24 02:15:34;;;;;;;5.60;3.27;;;21.40;81.00;;;;;;5063717;28;20178;-73
2021/04/24 02:18:02;;;;;;;7.10;3.73;;;21.50;80.40;;;;;;5072649;28;20183;-76
2021/04/24 02:20:29;;;;;;;8.87;4.30;;;21.80;80.20;;;;;;5072084;28;20183;-74
2021/04/24 02:22:57;;;;;;;7.63;3.00;;;22.00;80.20;;;;;;5072691;28;20186;-78
2021/04/24 02:25:24;;;;;;;9.40;3.33;;;22.50;79.50;;;;;;5072550;28;20652;-75
2021/04/24 02:27:51;;;;;;;9.20;3.60;;;22.80;78.20;;;;;;5072056;28;20186;-77
2021/04/24 02:30:22;;;;;;;7.20;3.33;;;22.80;77.60;;;;;;5072116;28;20237;-79
2021/04/24 02:32:50;;;;;;;8.50;3.50;;;23.00;76.40;;;;;;5072666;28;20180;-72
2021/04/24 02:35:27;;;;;;;10.50;3.17;;;23.00;75.90;;;;;;5072060;28;20183;-75
2021/04/24 02:37:54;;;;;;;6.63;3.10;;;23.20;76.10;;;;;;5072435;28;20712;-75
2021/04/24 02:40:22;;;;;;;5.33;3.03;;;23.10;76.30;;;;;;5072155;28;20182;-74
2021/04/24 02:42:50;;;;;;;7.37;3.90;;;22.80;76.70;;;;;;5071978;28;20224;-73
2021/04/24 02:45:18;;;;;;;8.23;3.30;;;23.10;77.10;;;;;;5066734;28;20213;-75
2021/04/24 02:47:45;;;;;;;6.80;2.90;;;23.80;75.90;;;;;;5055749;28;20183;-75
2021/04/24 02:50:16;;;;;;;8.17;2.77;;;23.80;74.10;;;;;;5060243;28;20257;-75
2021/04/24 02:52:44;;;;;;;7.83;2.97;;;23.70;75.20;;;;;;5072288;28;20179;-78
2021/04/24 02:55:14;;;;;;;6.67;3.03;;;23.90;74.60;;;;;;5072419;28;20209;-73
2021/04/24 02:57:42;;;;;;;6.77;3.00;;;24.20;73.70;;;;;;5072157;28;20550;-72
2021/04/24 03:00:14;;;;;;;8.97;3.00;;;24.10;73.70;;;;;;5071700;28;20198;-72
2021/04/24 03:02:41;;;;;;;10.60;3.20;;;23.60;74.50;;;;;;5071904;28;20211;-75
2021/04/24 03:05:18;;;;;;;7.23;3.13;;;23.90;74.90;;;;;;5072101;28;20179;-72
2021/04/24 03:07:46;;;;;;;6.53;2.53;;;24.30;73.70;;;;;;5076072;28;20258;-77
2021/04/24 03:10:14;;;;;;;9.30;3.00;;;24.60;72.70;;;;;;5076045;28;20182;-70
2021/04/24 03:12:42;;;;;;;5.77;3.00;;;24.20;72.80;;;;;;5076474;28;20180;-76
2021/04/24 03:15:09;;;;;;;6.87;2.70;;;23.80;73.70;;;;;;5075418;28;20229;-71
2021/04/24 03:17:37;;;;;;;7.80;2.60;;;24.30;73.60;;;;;;5035629;28;20232;-75
2021/04/24 03:20:11;;;;;;;6.80;2.50;;;25.00;72.10;;;;;;5060883;28;20233;-75
2021/04/24 03:22:39;;;;;;;6.00;2.67;;;25.50;71.20;;;;;;5075509;28;20602;-76
2021/04/24 03:25:08;;;;;;;8.70;2.67;;;25.20;72.20;;;;;;5075501;28;20233;-75
2021/04/24 03:27:36;;;;;;;6.50;2.60;;;25.40;71.50;;;;;;5075705;28;20218;-75
2021/04/24 03:30:10;;;;;;;6.20;2.50;;;24.80;71.20;;;;;;5075705;28;20211;-77
2021/04/24 03:32:38;;;;;;;8.33;2.60;;;24.60;71.70;;;;;;5075650;28;20175;-75
2021/04/24 03:35:07;;;;;;;9.20;2.43;;;24.50;72.70;;;;;;5075550;28;20183;-73
2021/04/24 03:37:35;;;;;;;6.50;2.10;;;24.50;71.90;;;;;;5075673;28;20591;-68
2021/04/24 03:40:03;;;;;;;4.30;1.87;;;24.60;70.90;;;;;;5075417;28;20179;-72
2021/04/24 03:42:30;;;;;;;6.10;1.97;;;25.10;69.90;;;;;;5073839;28;20214;-70
2021/04/24 03:44:58;;;;;;;4.63;1.83;;;25.60;68.80;;;;;;5074944;28;20167;-69
2021/04/24 03:47:25;;;;;;;4.63;2.10;;;25.60;67.90;;;;;;5055245;28;20184;-71
2021/04/24 03:49:53;;;;;;;8.20;2.10;;;25.70;68.50;;;;;;5056430;28;20715;-77
2021/04/24 03:52:20;;;;;;;7.30;2.10;;;25.80;68.30;;;;;;5055644;28;20199;-74
2021/04/24 03:54:48;;;;;;;3.23;1.80;;;26.20;67.30;;;;;;5060952;28;20172;-74
2021/04/24 03:57:15;;;;;;;9.07;2.27;;;26.40;66.50;;;;;;5070607;28;20266;-73
2021/04/24 03:59:42;;;;;;;4.50;2.30;;;26.60;65.50;;;;;;5055110;28;20266;-75
2021/04/24 04:02:09;;;;;;;6.63;2.10;;;26.90;65.10;;;;;;5074662;28;20272;-78
2021/04/24 04:04:41;;;;;;;5.93;1.87;;;26.40;66.00;;;;;;5064089;28;20180;-78
2021/04/24 04:07:08;;;;;;;6.83;2.37;;;26.70;64.80;;;;;;5075293;28;20256;-75
2021/04/24 04:09:35;;;;;;;6.47;1.73;;;26.00;67.10;;;;;;5051504;28;20177;-74
2021/04/24 04:12:03;;;;;;;7.70;1.57;;;26.00;62.70;;;;;;5056415;28;20179;-75
2021/04/24 04:14:30;;;;;;;8.33;1.80;;;26.20;63.20;;;;;;5060717;28;20291;-75
2021/04/24 04:16:57;;;;;;;6.33;2.17;;;26.50;62.40;;;;;;5059423;28;20648;-80
2021/04/24 04:19:25;;;;;;;2.93;1.40;;;26.10;66.40;;;;;;5055255;28;20545;-81
2021/04/24 04:21:52;;;;;;;8.47;2.83;;;26.00;61.20;;;;;;5054806;28;20754;-73
2021/04/24 04:24:20;;;;;;;8.60;2.57;;;25.50;67.90;;;;;;5060393;28;20241;-73
2021/04/24 04:26:47;;;;;;;7.77;2.50;;;25.60;68.20;;;;;;5060618;28;20230;-77
2021/04/24 04:29:14;;;;;;;7.30;3.03;;;25.20;66.10;;;;;;5063674;28;20654;-71
2021/04/24 04:31:42;;;;;;;9.67;2.70;;;25.70;66.60;;;;;;5058304;28;20289;-74
2021/04/24 04:34:09;;;;;;;7.77;3.37;;;26.00;66.00;;;;;;5050819;28;20180;-73
2021/04/24 04:36:36;;;;;;;10.40;3.00;;;25.40;69.10;;;;;;5055040;28;20222;-75
2021/04/24 04:39:04;;;;;;;7.80;2.93;;;25.60;69.20;;;;;;5054941;28;20182;-74
2021/04/24 04:41:31;;;;;;;11.50;2.80;;;26.00;69.00;;;;;;5052329;28;20227;-74
2021/04/24 04:43:58;;;;;;;9.00;2.83;;;26.10;68.80;;;;;;5057334;28;20241;-73
2021/04/24 04:46:26;;;;;;;12.23;3.00;;;25.90;68.60;;;;;;5055116;28;20191;-75
2021/04/24 04:48:53;;;;;;;8.07;2.83;;;25.70;69.00;;;;;;5050402;28;20183;-74
2021/04/24 04:51:20;;;;;;;5.17;2.70;;;25.20;70.50;;;;;;5056625;28;20188;-74
2021/04/24 04:53:48;;;;;;;7.00;2.63;;;25.70;70.00;;;;;;5054491;28;20176;-72
2021/04/24 04:56:15;;;;;;;6.90;2.47;;;25.70;69.90;;;;;;5056792;28;20190;-75
2021/04/24 04:58:42;;;;;;;5.97;2.80;;;26.20;68.70;;;;;;5052934;28;20226;-75
2021/04/24 05:01:10;;;;;;;10.03;2.60;;;26.80;68.10;;;;;;5053269;28;20251;-72
2021/04/24 05:03:38;;;;;;;9.00;3.00;;;25.90;69.80;;;;;;5055273;28;20654;-76
2021/04/24 05:06:05;;;;;;;8.80;3.03;;;25.50;71.00;;;;;;5053400;28;20192;-73
2021/04/24 05:08:35;;;;;;;6.27;3.00;;;26.00;70.50;;;;;;5057427;28;20330;-76
2021/04/24 05:11:04;;;;;;;6.30;2.67;;;25.70;69.40;;;;;;5054921;28;20177;-75
2021/04/24 05:13:32;;;;;;;7.43;3.17;;;25.20;72.30;;;;;;5050457;28;20642;-73
2021/04/24 05:16:00;;;;;;;7.00;2.73;;;25.20;73.00;;;;;;5055286;28;20262;-72
2021/04/24 05:18:28;;;;;;;6.80;2.50;;;24.90;74.50;;;;;;5053248;28;20280;-72
2021/04/24 05:20:55;;;;;;;16.03;3.73;;;25.20;73.80;;;;;;5060883;28;20766;-74
2021/04/24 05:23:23;;;;;;;6.63;2.60;;;24.90;74.50;;;;;;5053465;28;20211;-73
2021/04/24 05:25:50;;;;;;;5.77;2.77;;;25.20;74.60;;;;;;5053199;28;20176;-71
2021/04/24 05:28:18;;;;;;;8.23;3.20;;;25.20;74.00;;;;;;5058967;28;20176;-74
2021/04/24 05:30:45;;;;;;;7.17;2.70;;;25.40;74.20;;;;;;5052652;28;20228;-75
2021/04/24 05:33:12;;;;;;;9.13;2.70;;;25.30;74.40;;;;;;5054111;28;20172;-74
2021/04/24 05:35:40;;;;;;;10.80;2.70;;;24.90;75.40;;;;;;5062985;28;20184;-72
2021/04/24 05:38:07;;;;;;;8.17;2.37;;;24.40;76.20;;;;;;5053164;28;20605;-77
2021/04/24 05:40:34;;;;;;;11.17;2.70;;;24.60;76.90;;;;;;5053068;28;20606;-73
2021/04/24 05:43:02;;;;;;;10.43;2.70;;;24.20;77.60;;;;;;5053251;28;20553;-74
2021/04/24 05:45:29;;;;;;;7.33;2.70;;;24.10;79.00;;;;;;5053150;28;20274;-77
2021/04/24 05:47:56;;;;;;;5.03;2.80;;;24.50;77.70;;;;;;5052426;28;20198;-77
2021/04/24 05:50:25;;;;;;;6.57;2.50;;;24.80;77.30;;;;;;5049088;28;20176;-76
2021/04/24 05:52:52;;;;;;;7.37;2.70;;;25.10;77.30;;;;;;5054138;28;20635;-73
2021/04/24 05:55:20;;;;;;;10.30;2.33;;;25.20;76.80;;;;;;5056388;28;20184;-74
2021/04/24 05:57:47;;;;;;;14.83;2.70;;;25.00;76.80;;;;;;5052938;28;20215;-73
2021/04/24 06:00:19;;;;;;;7.67;3.03;;;25.00;77.20;;;;;;5052037;28;20194;-74
2021/04/24 06:02:47;;;;;;;6.17;2.50;;;24.60;78.20;;;;;;5052100;28;20226;-78
2021/04/24 06:05:14;;;;;;;4.60;2.57;;;24.80;78.00;;;;;;5057430;28;20207;-76
2021/04/24 06:07:42;;;;;;;8.90;3.03;;;24.70;78.50;;;;;;5053648;28;20641;-73
2021/04/24 06:10:12;;;;;;;6.43;2.47;;;24.60;78.20;;;;;;5056560;28;20320;-77
2021/04/24 06:12:40;;;;;;;5.60;2.53;;;24.70;78.40;;;;;;5051075;28;20184;-73
2021/04/24 06:15:10;;;;;;;8.97;2.70;;;24.70;78.50;;;;;;5052832;28;20191;-76
2021/04/24 06:17:39;;;;;;;9.27;2.80;;;24.30;79.00;;;;;;5053600;28;20179;-73
2021/04/24 06:20:08;;;;;;;9.27;2.70;;;24.00;80.20;;;;;;5054288;28;20182;-77
2021/04/24 06:22:36;;;;;;;9.73;2.97;;;23.80;80.80;;;;;;5051084;28;20286;-76
2021/04/24 06:25:05;;;;;;;8.73;2.43;;;23.30;81.10;;;;;;5052513;28;20180;-72
2021/04/24 06:27:32;;;;;;;4.90;2.43;;;23.00;82.50;;;;;;5057632;28;20248;-76
2021/04/24 06:30:00;;;;;;;10.70;5.33;;;22.60;83.80;;;;;;5056919;28;20589;-75
2021/04/24 06:32:27;;;;;;;9.03;2.70;;;22.20;85.20;;;;;;5055162;28;20223;-80
2021/04/24 06:34:55;;;;;;;7.57;2.87;;;22.20;85.60;;;;;;5052536;28;20253;-78
2021/04/24 06:37:22;;;;;;;10.17;2.80;;;22.10;85.60;;;;;;5054042;28;20184;-75
2021/04/24 06:39:49;;;;;;;11.33;3.23;;;21.80;86.60;;;;;;5052036;28;20575;-77
2021/04/24 06:42:17;;;;;;;8.17;3.07;;;21.70;87.20;;;;;;5049924;28;20277;-79
2021/04/24 06:44:45;;;;;;;10.83;3.30;;;21.50;87.90;;;;;;5050865;28;20191;-79
2021/04/24 06:47:13;;;;;;;7.37;3.13;;;21.30;88.50;;;;;;5043354;28;20541;-77
2021/04/24 06:49:40;;;;;;;8.80;2.60;;;21.10;88.90;;;;;;5050892;28;20535;-76
2021/04/24 06:52:08;;;;;;;9.63;2.70;;;20.90;89.80;;;;;;5049962;28;20244;-77
2021/04/24 06:54:36;;;;;;;8.00;3.07;;;20.90;90.10;;;;;;5051056;28;20195;-78
2021/04/24 06:57:04;;;;;;;9.93;3.40;;;20.90;90.20;;;;;;5048276;28;20569;-77
2021/04/24 06:59:32;;;;;;;10.23;3.10;;;20.70;90.50;;;;;;5051597;28;20190;-74
2021/04/24 07:01:59;;;;;;;8.37;2.83;;;20.70;90.70;;;;;;5051499;28;20354;-78
2021/04/24 07:04:27;;;;;;;8.73;3.10;;;20.70;90.90;;;;;;5050986;28;20646;-76
2021/04/24 07:06:54;;;;;;;14.97;3.60;;;20.50;91.10;;;;;;5049715;28;20191;-74
2021/04/24 07:09:21;;;;;;;10.77;3.03;;;20.50;91.60;;;;;;5053138;28;20190;-75
2021/04/24 07:11:49;;;;;;;7.70;2.67;;;20.30;92.10;;;;;;5051311;28;20222;-77
2021/04/24 07:14:17;;;;;;;10.97;3.00;;;20.20;92.40;;;;;;5050998;28;20184;-75
2021/04/24 07:16:44;;;;;;;7.93;3.00;;;20.20;92.70;;;;;;5050710;28;20764;-74
2021/04/24 07:19:12;;;;;;;8.87;2.73;;;20.00;93.00;;;;;;5043031;28;20190;-72
2021/04/24 07:21:39;;;;;;;10.03;3.10;;;19.90;93.50;;;;;;5050683;28;20302;-75
2021/04/24 07:24:07;;;;;;;11.90;2.80;;;19.80;93.90;;;;;;5056666;28;20180;-76
2021/04/24 07:26:34;;;;;;;9.50;3.23;;;19.70;94.50;;;;;;5050864;28;20572;-74
2021/04/24 07:29:02;;;;;;;9.43;3.10;;;19.70;94.90;;;;;;5051342;28;20184;-76
2021/04/24 07:31:30;;;;;;;8.80;3.20;;;19.60;95.20;;;;;;5053351;28;20227;-73
2021/04/24 07:33:59;;;;;;;14.77;3.70;;;19.60;95.70;;;;;;5050512;28;20180;-77
2021/04/24 07:36:28;;;;;;;9.73;3.23;;;19.60;96.00;;;;;;5050513;28;20176;-72
2021/04/24 07:38:56;;;;;;;12.07;3.20;;;19.50;96.30;;;;;;5050989;28;20739;-72
2021/04/24 07:41:24;;;;;;;13.80;3.27;;;19.40;96.70;;;;;;5050310;28;20666;-75
2021/04/24 07:43:51;;;;;;;9.33;3.13;;;19.30;97.00;;;;;;5054981;28;20642;-75
2021/04/24 07:46:20;;;;;;;6.90;3.30;;;19.30;97.40;;;;;;5052752;28;20183;-71
2021/04/24 07:48:47;;;;;;;7.70;2.90;;;19.30;97.70;;;;;;5053854;28;20585;-74
2021/04/24 07:51:15;;;;;;;14.87;3.43;;;19.20;97.90;;;;;;5052370;28;20189;-73
2021/04/24 07:53:42;;;;;;;7.17;2.63;;;19.20;98.30;;;;;;5055277;28;20188;-70
2021/04/24 07:56:10;;;;;;;16.73;3.00;;;19.10;98.40;;;;;;5057877;28;20183;-76
2021/04/24 07:58:37;;;;;;;6.33;2.67;;;19.10;98.70;;;;;;5055302;28;20267;-73
2021/04/24 08:01:05;;;;;;;12.03;3.53;;;19.10;98.90;;;;;;5054301;28;20204;-71
2021/04/24 08:03:32;;;;;;;13.03;3.53;;;19.10;99.10;;;;;;5054156;28;20204;-74
2021/04/24 08:05:59;;;;;;;10.20;3.87;;;19.00;99.40;;;;;;5059817;28;20178;-76
2021/04/24 08:08:27;;;;;;;8.33;3.80;;;19.00;99.60;;;;;;5062459;28;20221;-74
2021/04/24 08:10:54;;;;;;;9.87;4.10;;;19.00;99.80;;;;;;5074801;28;20210;-73
2021/04/24 08:13:22;;;;;;;15.73;3.53;;;18.90;99.90;;;;;;5064302;28;20187;-74
2021/04/24 08:15:49;;;;;;;12.73;3.60;;;18.90;99.90;;;;;;5057403;28;20333;-69
2021/04/24 08:18:17;;;;;;;6.33;2.93;;;18.90;99.90;;;;;;5068278;28;20710;-70
2021/04/24 08:20:44;;;;;;;8.40;3.10;;;18.90;99.90;;;;;;5064786;28;20179;-69
2021/04/24 08:23:11;;;;;;;5.93;2.97;;;18.90;99.90;;;;;;5052410;28;20280;-69
2021/04/24 08:25:39;;;;;;;6.93;3.40;;;18.80;99.90;;;;;;5059632;28;20190;-74
2021/04/24 08:28:06;;;;;;;11.53;3.00;;;18.80;99.90;;;;;;5057985;28;20210;-70
2021/04/24 08:30:33;;;;;;;11.13;3.23;;;18.80;99.90;;;;;;5072062;28;20223;-70
2021/04/24 08:33:02;;;;;;;6.43;3.20;;;18.80;99.90;;;;;;5074366;28;20191;-76
2021/04/24 08:35:29;;;;;;;14.97;3.47;;;18.70;99.90;;;;;;5067356;28;20210;-76
2021/04/24 08:37:56;;;;;;;8.63;3.43;;;18.70;99.90;;;;;;5074224;28;20187;-73
2021/04/24 08:40:24;;;;;;;7.97;4.00;;;18.60;99.90;;;;;;5059297;28;20180;-73
2021/04/24 08:42:53;;;;;;;7.23;3.70;;;18.60;99.90;;;;;;5056605;28;20215;-74
2021/04/24 08:45:23;;;;;;;9.93;3.23;;;18.60;99.90;;;;;;5066337;28;20171;-72
2021/04/24 08:47:52;;;;;;;9.50;3.77;;;18.60;99.90;;;;;;5056497;28;20188;-76
2021/04/24 08:50:26;;;;;;;10.10;3.70;;;18.60;99.90;;;;;;5074315;28;20168;-77
2021/04/24 08:52:54;;;;;;;8.87;3.50;;;18.50;99.90;;;;;;5074012;28;20176;-75
2021/04/24 08:55:24;;;;;;;15.30;4.17;;;18.50;99.90;;;;;;5066484;28;20215;-76
2021/04/24 08:57:52;;;;;;;10.80;3.73;;;18.40;99.90;;;;;;5056073;28;20196;-77
2021/04/24 09:00:26;;;;;;;12.47;3.90;;;18.40;99.90;;;;;;5060598;28;20633;-75
2021/04/24 09:02:54;;;;;;;12.93;3.70;;;18.40;99.90;;;;;;5069806;28;20229;-76
2021/04/24 09:05:24;;;;;;;9.53;3.90;;;18.30;99.90;;;;;;5068545;28;20557;-77
2021/04/24 09:08:08;;;;;;;7.47;3.70;;;18.30;99.90;;;;;;5064028;28;20206;-77
2021/04/24 09:10:44;;;;;;;13.83;4.20;;;18.30;99.90;;;;;;5048950;28;20290;-77
2021/04/24 09:13:22;;;;;;;11.53;4.07;;;18.20;99.90;;;;;;5073254;28;20183;-76
2021/04/24 09:15:50;;;;;;;10.80;4.60;;;18.20;99.90;;;;;;5066649;28;20233;-74
2021/04/24 09:18:19;;;;;;;11.73;4.37;;;18.10;99.90;;;;;;5058915;28;20254;-74
2021/04/24 09:20:55;;;;;;;7.93;4.13;;;18.10;99.90;;;;;;5065736;28;20262;-74
2021/04/24 09:23:24;;;;;;;12.27;5.00;;;18.00;99.90;;;;;;5059664;28;20190;-76
2021/04/24 09:26:03;;;;;;;13.93;4.13;;;17.90;99.90;;;;;;5060965;28;20492;-75
2021/04/24 09:28:42;;;;;;;12.07;4.13;;;17.90;99.90;;;;;;5061223;28;20176;-75
2021/04/24 09:31:18;;;;;;;11.70;4.30;;;17.80;99.90;;;;;;5068020;28;20582;-75
2021/04/24 09:33:48;;;;;;;8.07;3.93;;;17.80;99.90;;;;;;5072725;28;20182;-75
2021/04/24 09:36:17;;;;;;;13.00;4.33;;;17.90;99.90;;;;;;5073506;28;20205;-70
2021/04/24 09:38:47;;;;;;;11.90;4.10;;;18.00;99.90;;;;;;5072990;28;20186;-73
2021/04/24 09:41:18;;;;;;;14.63;4.30;;;18.00;99.90;;;;;;5058967;28;20756;-74
2021/04/24 09:43:52;;;;;;;14.13;5.03;;;18.00;99.90;;;;;;5069628;28;20195;-73
2021/04/24 09:46:20;;;;;;;12.03;3.80;;;18.00;99.90;;;;;;5052818;28;20176;-75
2021/04/24 09:48:48;;;;;;;12.10;4.10;;;17.90;99.90;;;;;;5052034;28;20661;-75
2021/04/24 09:51:17;;;;;;;12.50;4.60;;;17.90;99.90;;;;;;5048325;28;20183;-75
2021/04/24 09:54:05;;;;;;;12.03;4.47;;;17.80;99.90;;;;;;5045810;28;20552;-75
2021/04/24 09:56:32;;;;;;;11.03;4.30;;;17.80;99.90;;;;;;5052793;28;20554;-76
2021/04/24 09:59:09;;;;;;;13.53;4.47;;;17.80;99.90;;;;;;5052284;28;20176;-75
2021/04/24 10:01:41;;;;;;;11.10;4.83;;;17.70;99.90;;;;;;5050954;28;20199;-75
2021/04/24 10:04:16;;;;;;;13.10;5.77;;;17.70;99.90;;;;;;5048520;28;20230;-75
2021/04/24 10:06:44;;;;;;;15.40;5.43;;;17.70;99.90;;;;;;5053058;28;20183;-74
2021/04/24 10:09:23;;;;;;;11.80;4.50;;;17.60;99.90;;;;;;5052448;28;20194;-75
2021/04/24 10:12:08;;;;;;;10.97;4.93;;;17.60;99.90;;;;;;5052527;28;20195;-77
2021/04/24 10:14:44;;;;;;;17.50;5.30;;;17.60;99.90;;;;;;5049825;28;20179;-75
2021/04/24 10:17:16;;;;;;;11.77;5.50;;;17.50;99.90;;;;;;5050528;28;20198;-75
2021/04/24 10:19:45;;;;;;;13.70;5.33;;;17.40;99.90;;;;;;5052287;28;20626;-75
2021/04/24 10:22:16;;;;;;;13.90;5.23;;;17.40;99.90;;;;;;5042667;28;20215;-76
2021/04/24 10:24:44;;;;;;;10.23;5.47;;;17.30;99.90;;;;;;5052662;28;20188;-75
2021/04/24 10:27:13;;;;;;;13.73;5.30;;;17.20;99.90;;;;;;5052415;28;20184;-76
2021/04/24 10:29:42;;;;;;;13.27;5.40;;;17.10;99.90;;;;;;5052026;28;20238;-76
2021/04/24 10:32:10;;;;;;;9.67;4.50;;;17.00;99.90;;;;;;5050598;28;20200;-75
2021/04/24 10:34:39;;;;;;;13.83;5.43;;;17.00;99.90;;;;;;5052132;28;20186;-75
2021/04/24 10:37:07;;;;;;;7.70;4.80;;;16.90;99.90;;;;;;5052114;28;20195;-77
2021/04/24 10:39:38;;;;;;;10.23;4.83;;;16.90;99.90;;;;;;5052332;28;20180;-75
2021/04/24 10:42:19;;;;;;;11.07;5.90;;;16.80;99.90;;;;;;5051848;28;20564;-76
2021/04/24 10:44:50;;;;;;;10.80;5.67;;;16.80;99.90;;;;;;5051748;28;20207;-75
2021/04/24 10:50:19;;;;;;;11.07;5.63;;;16.70;99.90;;;;;;5038974;28;20337;-76
2021/04/24 10:52:47;;;;;;;16.53;5.97;;;16.60;99.90;;;;;;5046323;28;20233;-74
2021/04/24 10:55:14;;;;;;;10.27;5.80;;;16.60;99.90;;;;;;5052088;28;20627;-76
2021/04/24 10:57:45;;;;;;;10.73;5.27;;;16.60;99.90;;;;;;5051883;28;20184;-75
2021/04/24 11:00:21;;;;;;;11.87;5.80;;;16.60;99.90;;;;;;5052003;28;20176;-75
2021/04/24 11:02:53;;;;;;;15.67;7.07;;;16.60;99.90;;;;;;5051680;28;20572;-76
2021/04/24 11:05:28;;;;;;;16.63;6.63;;;16.50;99.90;;;;;;5049696;28;20209;-76
2021/04/24 11:08:10;;;;;;;14.37;6.23;;;16.50;99.90;;;;;;5051732;28;20189;-76
2021/04/24 11:11:02;;;;;;;13.33;6.33;;;16.40;99.90;;;;;;5048433;28;20176;-76
2021/04/24 11:13:54;;;;;;;18.93;8.13;;;16.30;99.90;;;;;;5051911;28;20188;-75
2021/04/24 11:16:23;;;;;;;19.03;9.07;;;16.20;99.90;;;;;;5050740;28;20230;-77
2021/04/24 11:18:51;;;;;;;19.33;10.53;;;16.20;99.90;;;;;;5051976;28;20215;-77
2021/04/24 11:21:20;;;;;;;18.97;10.23;;;16.10;99.90;;;;;;5051652;28;20208;-76
2021/04/24 11:23:58;;;;;;;19.53;11.20;;;16.10;99.90;;;;;;5051560;28;20184;-75
2021/04/24 11:26:48;;;;;;;21.10;9.50;;;16.10;99.90;;;;;;5052307;28;20188;-75
2021/04/24 11:29:35;;;;;;;14.93;8.40;;;16.10;99.90;;;;;;5055781;28;20180;-75
2021/04/24 11:32:29;;;;;;;23.87;9.53;;;16.10;99.90;;;;;;5055130;28;20206;-75
2021/04/24 11:35:12;;;;;;;13.97;8.67;;;16.10;99.90;;;;;;5054782;28;20192;-77
2021/04/24 11:37:50;;;;;;;18.33;9.53;;;16.20;99.90;;;;;;5041894;28;20691;-77
2021/04/24 11:40:28;;;;;;;18.50;8.60;;;16.10;99.90;;;;;;5053617;28;20183;-76
2021/04/24 11:43:08;;;;;;;17.43;8.23;;;16.00;99.90;;;;;;5059137;28;20210;-75
2021/04/24 11:45:45;;;;;;;15.40;8.73;;;16.00;99.90;;;;;;5050973;28;20211;-70
2021/04/24 11:48:13;;;;;;;14.73;7.63;;;16.00;99.90;;;;;;5055081;28;20646;-75
2021/04/24 11:50:42;;;;;;;14.77;7.40;;;15.90;99.90;;;;;;5054183;28;20204;-74
2021/04/24 11:53:11;;;;;;;16.23;7.70;;;15.90;99.90;;;;;;5040856;28;20226;-74
2021/04/24 11:55:39;;;;;;;19.87;8.57;;;15.90;99.90;;;;;;5044900;28;20188;-73
2021/04/24 11:58:11;;;;;;;14.30;7.73;;;15.90;99.90;;;;;;5059754;28;20347;-75
2021/04/24 12:00:39;;;;;;;16.17;8.63;;;15.90;99.90;;;;;;5052753;28;20197;-75
2021/04/24 12:03:07;;;;;;;21.63;8.80;;;15.90;99.90;;;;;;5055422;28;20192;-76
2021/04/24 12:05:44;;;;;;;12.23;7.97;;;15.90;99.90;;;;;;5071858;28;20179;-76
2021/04/24 12:08:21;;;;;;;14.97;9.23;;;15.80;99.90;;;;;;5057876;28;20187;-75
2021/04/24 12:10:49;;;;;;;18.47;8.87;;;15.90;99.90;;;;;;5063066;28;20191;-74
2021/04/24 12:13:17;;;;;;;18.70;9.13;;;15.90;99.90;;;;;;5067235;28;20550;-76
2021/04/24 12:15:51;;;;;;;16.73;8.23;;;15.90;99.90;;;;;;5059663;28;20186;-75
2021/04/24 12:18:19;;;;;;;17.83;8.27;;;15.90;99.90;;;;;;5054084;28;20186;-74
2021/04/24 12:20:47;;;;;;;18.60;9.60;;;15.80;99.90;;;;;;5065784;28;20179;-73
2021/04/24 12:23:16;;;;;;;18.30;9.53;;;15.70;99.90;;;;;;5063110;28;20190;-74
2021/04/24 12:25:48;;;;;;;18.73;9.97;;;15.60;99.90;;;;;;5074821;28;20183;-75
2021/04/24 12:28:22;;;;;;;19.10;10.37;;;15.60;99.90;;;;;;5063506;28;20212;-72
2021/04/24 12:30:52;;;;;;;15.83;9.13;;;15.60;99.90;;;;;;5069607;28;20223;-75
2021/04/24 12:33:23;;;;;;;18.70;8.97;;;15.50;99.90;;;;;;5063923;28;20190;-76
2021/04/24 12:36:02;;;;;;;21.43;10.27;;;15.40;99.90;;;;;;5074692;28;20183;-74
2021/04/24 12:38:31;;;;;;;21.83;10.50;;;15.50;99.90;;;;;;5068854;28;20201;-76
2021/04/24 12:41:01;;;;;;;22.37;11.07;;;15.40;99.90;;;;;;5060109;28;20180;-75
2021/04/24 12:43:31;;;;;;;20.83;10.10;;;15.40;99.90;;;;;;5073871;28;20536;-75
2021/04/24 12:46:01;;;;;;;19.10;10.10;;;15.30;99.90;;;;;;5069057;28;20187;-74
2021/04/24 12:48:39;;;;;;;17.40;9.37;;;15.30;99.90;;;;;;5065334;28;20187;-75
2021/04/24 12:51:12;;;;;;;30.03;11.07;;;15.30;99.90;;;;;;5062362;28;20541;-69
2021/04/24 12:53:42;;;;;;;21.47;9.70;;;15.30;99.90;;;;;;5073669;28;20209;-71
2021/04/24 12:56:12;;;;;;;23.57;10.93;;;15.30;99.90;;;;;;5067494;28;20650;-70
2021/04/24 12:58:42;;;;;;;19.03;9.97;;;15.30;99.90;;;;;;5058489;28;20266;-69